Time;durP1;ratioP1;P1;durP2;ratioP2;P2;SDS_P1;SDS_P2;PMS_P1;PMS_P2;Temp;Humidity;BMP_temperature;BMP_pressure;BME280_temperature;BME280_humidity;BME280_pressure;Samples;Min_cycle;Max_cycle;Signal;HPM_P1;HPM_P2
2023/06/10 00:01:43;;;;;;;5.40;4.90;;;24.00;54.40;;;;;;5074078;28;20677;-68
2023/06/10 00:04:08;;;;;;;5.05;4.68;;;24.00;54.40;;;;;;5073232;28;20178;-68
2023/06/10 00:06:36;;;;;;;5.35;4.95;;;24.00;54.40;;;;;;5073632;28;20633;-68
2023/06/10 00:09:04;;;;;;;5.03;4.63;;;24.00;54.30;;;;;;5073173;28;20617;-67
2023/06/10 00:11:31;;;;;;;4.95;4.55;;;23.90;54.20;;;;;;5073602;28;20319;-66
2023/06/10 00:13:57;;;;;;;5.38;4.88;;;24.00;54.30;;;;;;5074098;28;20174;-66
2023/06/10 00:16:22;;;;;;;5.13;4.72;;;23.90;54.20;;;;;;5072818;28;20177;-66
2023/06/10 00:18:51;;;;;;;5.25;4.85;;;23.90;54.30;;;;;;5073611;28;20209;-66
2023/06/10 00:21:16;;;;;;;5.55;4.63;;;23.90;54.20;;;;;;5073042;28;20254;-65
2023/06/10 00:23:42;;;;;;;5.28;4.88;;;23.90;54.30;;;;;;5072744;28;20211;-66
2023/06/10 00:26:08;;;;;;;5.20;4.88;;;24.00;54.40;;;;;;5073187;28;20177;-65
2023/06/10 00:28:34;;;;;;;5.18;4.75;;;23.90;54.30;;;;;;5072901;28;20528;-66
2023/06/10 00:31:00;;;;;;;4.78;4.47;;;23.90;54.40;;;;;;5072877;28;20174;-68
2023/06/10 00:33:25;;;;;;;5.20;4.80;;;23.90;54.40;;;;;;5073230;28;20656;-68
2023/06/10 00:35:51;;;;;;;4.70;4.30;;;23.90;54.30;;;;;;5073266;28;20669;-66
2023/06/10 00:38:16;;;;;;;5.50;5.10;;;23.90;54.30;;;;;;5071955;28;20712;-68
2023/06/10 00:40:42;;;;;;;5.07;4.63;;;23.90;54.40;;;;;;5073094;28;20199;-67
2023/06/10 00:43:07;;;;;;;5.13;4.72;;;23.90;54.40;;;;;;5072868;28;20185;-67
2023/06/10 00:45:33;;;;;;;5.03;4.63;;;23.90;54.30;;;;;;5072575;28;20184;-68
2023/06/10 00:48:00;;;;;;;4.85;4.45;;;23.90;54.40;;;;;;5073156;28;20240;-67
2023/06/10 00:50:25;;;;;;;4.63;4.32;;;24.00;54.50;;;;;;5071702;28;20182;-67
2023/06/10 00:52:51;;;;;;;4.75;4.35;;;23.90;54.30;;;;;;5071239;28;20174;-66
2023/06/10 00:55:17;;;;;;;4.97;4.47;;;23.80;54.40;;;;;;5072603;28;20178;-66
2023/06/10 00:57:44;;;;;;;5.32;4.85;;;23.90;54.30;;;;;;5073152;28;20582;-67
2023/06/10 01:00:10;;;;;;;5.00;4.60;;;23.80;54.40;;;;;;5071948;28;20692;-67
2023/06/10 01:02:36;;;;;;;5.15;4.70;;;23.90;54.40;;;;;;5073023;28;20240;-68
2023/06/10 01:05:02;;;;;;;5.40;4.90;;;23.80;54.30;;;;;;5072942;28;20688;-67
2023/06/10 01:08:01;;;;;;;4.60;4.30;;;23.80;54.30;;;;;;5070914;28;20178;-67
2023/06/10 01:11:01;;;;;;;4.82;4.43;;;23.80;54.40;;;;;;5065918;28;20193;-67
2023/06/10 01:13:31;;;;;;;5.00;4.68;;;23.80;54.40;;;;;;5071840;28;20205;-66
2023/06/10 01:15:57;;;;;;;5.55;5.05;;;23.80;54.40;;;;;;5071496;28;20546;-64
2023/06/10 01:18:23;;;;;;;5.32;4.85;;;23.80;54.40;;;;;;5071302;28;20182;-67
2023/06/10 01:20:48;;;;;;;5.38;4.97;;;23.80;54.40;;;;;;5072196;28;20210;-66
2023/06/10 01:23:14;;;;;;;5.40;5.00;;;23.90;54.40;;;;;;5072661;28;20198;-66
2023/06/10 01:25:49;;;;;;;5.15;4.75;;;23.80;54.30;;;;;;5072805;28;20248;-66
2023/06/10 01:28:31;;;;;;;5.40;4.93;;;23.80;54.40;;;;;;5071728;28;20177;-66
2023/06/10 01:31:09;;;;;;;5.10;4.70;;;23.80;54.30;;;;;;5071626;28;20181;-68
2023/06/10 01:33:36;;;;;;;5.03;4.63;;;23.80;54.30;;;;;;5070633;28;20586;-69
2023/06/10 01:36:01;;;;;;;4.93;4.55;;;23.80;54.30;;;;;;5071506;28;20174;-66
2023/06/10 01:38:27;;;;;;;4.72;4.40;;;23.80;54.20;;;;;;5072234;28;20226;-68
2023/06/10 01:40:53;;;;;;;4.50;4.20;;;23.70;54.20;;;;;;5073091;28;20727;-67
2023/06/10 01:43:20;;;;;;;5.00;4.60;;;23.80;54.10;;;;;;5076145;28;20171;-67
2023/06/10 01:45:45;;;;;;;5.38;4.93;;;23.80;54.20;;;;;;5076717;28;20178;-67
2023/06/10 01:48:11;;;;;;;4.75;4.43;;;23.80;54.10;;;;;;5075687;28;20601;-67
2023/06/10 01:50:36;;;;;;;5.18;4.78;;;23.80;54.20;;;;;;5076496;28;20602;-67
2023/06/10 01:53:03;;;;;;;4.57;4.18;;;23.80;54.20;;;;;;5076522;28;20194;-66
2023/06/10 01:55:29;;;;;;;5.22;4.82;;;23.80;54.10;;;;;;5075346;28;20213;-67
2023/06/10 01:57:54;;;;;;;4.90;4.50;;;23.70;53.90;;;;;;5076210;28;20206;-66
2023/06/10 02:00:20;;;;;;;4.78;4.47;;;23.70;54.00;;;;;;5076022;28;20217;-67
2023/06/10 02:02:45;;;;;;;4.40;4.07;;;23.70;54.10;;;;;;5075585;28;20166;-68
2023/06/10 02:05:11;;;;;;;4.72;4.32;;;23.80;53.80;;;;;;5075808;28;20569;-67
2023/06/10 02:07:37;;;;;;;5.13;4.65;;;23.70;53.90;;;;;;5076125;28;20178;-67
2023/06/10 02:10:04;;;;;;;4.80;4.50;;;23.70;54.40;;;;;;5075385;28;20170;-66
2023/06/10 02:12:29;;;;;;;4.68;4.32;;;23.80;53.90;;;;;;5075642;28;20174;-66
2023/06/10 02:14:55;;;;;;;5.07;4.68;;;23.70;53.70;;;;;;5076078;28;20171;-66
2023/06/10 02:17:20;;;;;;;4.90;4.50;;;23.70;53.80;;;;;;5075075;28;20182;-66
2023/06/10 02:19:52;;;;;;;4.60;4.20;;;23.70;53.60;;;;;;5075953;28;20175;-66
2023/06/10 02:22:20;;;;;;;5.45;5.05;;;23.70;53.70;;;;;;5075573;28;20178;-66
2023/06/10 02:24:46;;;;;;;5.57;5.18;;;23.70;53.60;;;;;;5075011;28;20347;-66
2023/06/10 02:27:11;;;;;;;4.75;4.35;;;23.70;53.40;;;;;;5075248;28;20640;-66
2023/06/10 02:29:37;;;;;;;4.70;4.40;;;23.70;53.60;;;;;;5074898;28;20166;-67
2023/06/10 02:32:03;;;;;;;4.35;4.05;;;23.70;53.50;;;;;;5075572;28;20183;-67
2023/06/10 02:34:28;;;;;;;5.13;4.72;;;23.70;53.50;;;;;;5075365;28;20183;-68
2023/06/10 02:36:54;;;;;;;5.22;4.72;;;23.70;53.40;;;;;;5075013;28;20175;-67
2023/06/10 02:39:20;;;;;;;5.15;4.68;;;23.70;53.40;;;;;;5075108;28;20222;-67
2023/06/10 02:41:46;;;;;;;4.50;4.20;;;23.60;53.30;;;;;;5075398;28;20213;-66
2023/06/10 02:44:11;;;;;;;4.90;4.40;;;23.70;53.40;;;;;;5074583;28;20521;-67
2023/06/10 02:46:37;;;;;;;4.88;4.57;;;23.70;53.40;;;;;;5075292;28;20554;-68
2023/06/10 02:49:02;;;;;;;5.20;4.80;;;23.60;53.30;;;;;;5075269;28;20176;-67
2023/06/10 02:51:28;;;;;;;4.45;4.13;;;23.60;53.30;;;;;;5074091;28;20178;-67
2023/06/10 02:53:53;;;;;;;5.43;4.93;;;23.60;53.30;;;;;;5075204;28;20167;-67
2023/06/10 02:56:19;;;;;;;5.53;4.85;;;23.60;53.30;;;;;;5074759;28;20174;-67
2023/06/10 02:58:45;;;;;;;4.72;4.43;;;23.60;53.30;;;;;;5074708;28;20228;-67
2023/06/10 03:01:11;;;;;;;5.13;4.72;;;23.60;53.30;;;;;;5074865;28;20214;-67
2023/06/10 03:03:40;;;;;;;4.90;4.40;;;23.60;53.30;;;;;;5075146;28;20205;-68
2023/06/10 03:06:06;;;;;;;4.82;4.43;;;23.60;53.30;;;;;;5074354;28;20185;-66
2023/06/10 03:08:31;;;;;;;5.28;4.82;;;23.60;53.30;;;;;;5075153;28;20175;-67
2023/06/10 03:10:57;;;;;;;5.00;4.60;;;23.60;53.30;;;;;;5074971;28;20641;-66
2023/06/10 03:13:23;;;;;;;5.30;4.80;;;23.60;53.20;;;;;;5073936;28;20231;-66
2023/06/10 03:15:49;;;;;;;5.25;4.78;;;23.60;53.30;;;;;;5074950;28;20177;-66
2023/06/10 03:18:14;;;;;;;5.03;4.55;;;23.60;53.20;;;;;;5074489;28;20170;-66
2023/06/10 03:20:40;;;;;;;5.00;4.60;;;23.60;53.30;;;;;;5074057;28;20568;-67
2023/06/10 03:23:09;;;;;;;4.45;4.15;;;23.60;53.30;;;;;;5074786;28;20751;-66
2023/06/10 03:25:35;;;;;;;4.72;4.43;;;23.60;53.30;;;;;;5074626;28;20193;-65
2023/06/10 03:28:00;;;;;;;5.32;4.82;;;23.60;53.30;;;;;;5074096;28;20174;-66
2023/06/10 03:30:27;;;;;;;4.68;4.38;;;23.60;53.30;;;;;;5074488;28;20866;-67
2023/06/10 03:32:52;;;;;;;5.07;4.68;;;23.60;53.30;;;;;;5073896;28;20201;-68
2023/06/10 03:35:18;;;;;;;4.70;4.30;;;23.60;53.30;;;;;;5074178;28;20217;-68
2023/06/10 03:37:44;;;;;;;5.00;4.60;;;23.60;53.30;;;;;;5074210;28;20628;-67
2023/06/10 03:40:09;;;;;;;6.00;4.82;;;23.60;53.30;;;;;;5073256;28;20766;-66
2023/06/10 03:42:35;;;;;;;5.32;4.80;;;23.60;53.30;;;;;;5074219;28;20178;-66
2023/06/10 03:45:01;;;;;;;5.10;4.63;;;23.60;53.30;;;;;;5074477;28;20219;-67
2023/06/10 03:47:29;;;;;;;4.95;4.55;;;23.60;53.20;;;;;;5073248;28;20261;-67
2023/06/10 03:49:55;;;;;;;4.72;4.40;;;23.60;53.30;;;;;;5072670;28;20285;-67
2023/06/10 03:52:21;;;;;;;5.32;4.82;;;23.60;53.30;;;;;;5073728;28;20177;-66
2023/06/10 03:54:46;;;;;;;5.38;4.88;;;23.60;53.30;;;;;;5073341;28;20630;-66
2023/06/10 03:57:12;;;;;;;4.40;4.10;;;23.60;53.30;;;;;;5073783;28;20175;-66
2023/06/10 03:59:37;;;;;;;6.22;4.30;;;23.60;53.30;;;;;;5074000;28;20182;-67
2023/06/10 04:02:04;;;;;;;4.47;4.18;;;23.60;53.20;;;;;;5073310;28;20173;-67
2023/06/10 04:04:30;;;;;;;5.07;4.60;;;23.60;53.20;;;;;;5072874;28;20178;-67
2023/06/10 04:06:56;;;;;;;5.60;4.78;;;23.60;53.20;;;;;;5073774;28;20175;-67
2023/06/10 04:09:21;;;;;;;4.70;4.30;;;23.60;53.20;;;;;;5072612;28;20643;-66
2023/06/10 04:11:47;;;;;;;5.20;4.68;;;23.60;53.20;;;;;;5073637;28;20193;-66
2023/06/10 04:14:13;;;;;;;4.72;4.32;;;23.60;53.20;;;;;;5073413;28;20262;-65
2023/06/10 04:16:39;;;;;;;4.60;4.20;;;23.60;53.20;;;;;;5072927;28;20265;-66
2023/06/10 04:19:04;;;;;;;4.88;4.43;;;23.60;53.20;;;;;;5073706;28;20250;-65
2023/06/10 04:21:30;;;;;;;4.93;4.53;;;23.60;53.10;;;;;;5073192;28;20297;-66
2023/06/10 04:23:55;;;;;;;4.10;3.80;;;23.60;53.10;;;;;;5072719;28;20269;-64
2023/06/10 04:26:21;;;;;;;4.80;4.40;;;23.60;53.10;;;;;;5073024;28;20604;-66
2023/06/10 04:28:47;;;;;;;7.50;5.10;;;23.60;53.10;;;;;;5073410;28;20189;-68
2023/06/10 04:31:12;;;;;;;4.57;4.18;;;23.60;53.10;;;;;;5072422;28;20171;-69
2023/06/10 04:33:38;;;;;;;4.65;4.25;;;23.60;53.10;;;;;;5073519;28;20258;-69
2023/06/10 04:36:06;;;;;;;5.18;4.68;;;23.60;53.10;;;;;;5072874;28;20258;-68
2023/06/10 04:38:32;;;;;;;5.80;4.75;;;23.60;53.10;;;;;;5072873;28;20601;-69
2023/06/10 04:40:57;;;;;;;4.82;4.43;;;23.60;53.10;;;;;;5073092;28;20213;-68
2023/06/10 04:43:23;;;;;;;4.75;4.35;;;23.60;53.10;;;;;;5072285;28;20182;-68
2023/06/10 04:45:48;;;;;;;5.00;4.50;;;23.60;53.10;;;;;;5073244;28;20182;-68
2023/06/10 04:48:14;;;;;;;5.03;4.57;;;23.60;53.00;;;;;;5072674;28;20166;-68
2023/06/10 04:50:39;;;;;;;4.85;4.40;;;23.60;53.00;;;;;;5072450;28;20227;-69
2023/06/10 04:53:06;;;;;;;4.90;4.50;;;23.60;53.10;;;;;;5073202;28;20170;-68
2023/06/10 04:55:31;;;;;;;4.47;4.18;;;23.60;53.00;;;;;;5072669;28;20178;-67
2023/06/10 04:57:57;;;;;;;4.68;4.28;;;23.60;53.00;;;;;;5072410;28;20185;-67
2023/06/10 05:00:22;;;;;;;5.10;4.60;;;23.60;53.00;;;;;;5072550;28;20241;-68
2023/06/10 05:02:49;;;;;;;4.85;4.20;;;23.70;53.10;;;;;;5072972;28;20166;-68
2023/06/10 05:05:16;;;;;;;5.18;4.68;;;23.60;53.00;;;;;;5071824;28;20577;-68
2023/06/10 05:07:42;;;;;;;5.22;4.82;;;23.60;53.00;;;;;;5073047;28;20231;-68
2023/06/10 05:10:08;;;;;;;4.75;4.35;;;23.60;53.00;;;;;;5072778;28;20171;-66
2023/06/10 05:12:33;;;;;;;5.30;4.80;;;23.70;53.10;;;;;;5072204;28;20175;-66
2023/06/10 05:14:59;;;;;;;4.80;4.40;;;23.70;53.10;;;;;;5072834;28;20262;-66
2023/06/10 05:17:25;;;;;;;5.00;4.60;;;23.60;53.00;;;;;;5072459;28;20262;-67
2023/06/10 05:19:50;;;;;;;5.13;4.72;;;23.70;53.10;;;;;;5071920;28;20179;-66
2023/06/10 05:22:17;;;;;;;4.80;4.40;;;23.60;53.00;;;;;;5072306;28;20186;-67
2023/06/10 05:24:43;;;;;;;4.93;4.43;;;23.60;53.00;;;;;;5072794;28;20223;-66
2023/06/10 05:27:09;;;;;;;5.32;4.65;;;23.70;53.10;;;;;;5071306;28;20182;-67
2023/06/10 05:29:35;;;;;;;4.90;4.50;;;23.60;53.00;;;;;;5072519;28;20174;-68
2023/06/10 05:32:02;;;;;;;5.05;4.65;;;23.60;53.00;;;;;;5072621;28;20170;-68
2023/06/10 05:34:29;;;;;;;5.10;4.65;;;23.70;53.00;;;;;;5071353;28;20256;-69
2023/06/10 05:36:55;;;;;;;4.97;4.47;;;23.70;53.00;;;;;;5072760;28;20179;-68
2023/06/10 05:39:20;;;;;;;5.20;4.80;;;23.70;53.00;;;;;;5071472;28;20245;-68
2023/06/10 05:41:46;;;;;;;4.47;4.07;;;23.70;53.10;;;;;;5071921;28;20571;-68
2023/06/10 05:44:11;;;;;;;5.38;4.65;;;23.70;53.10;;;;;;5072257;28;20170;-68
2023/06/10 05:46:37;;;;;;;4.75;4.35;;;23.70;53.00;;;;;;5071774;28;20633;-69
2023/06/10 05:49:02;;;;;;;4.72;4.32;;;23.70;53.00;;;;;;5072320;28;20605;-68
2023/06/10 05:51:28;;;;;;;4.47;4.07;;;23.70;53.00;;;;;;5072297;28;20811;-68
2023/06/10 05:53:54;;;;;;;4.82;4.32;;;23.70;53.10;;;;;;5071821;28;20170;-67
2023/06/10 05:56:22;;;;;;;4.68;4.28;;;23.70;53.10;;;;;;5072083;28;20625;-68
2023/06/10 05:58:48;;;;;;;4.35;4.05;;;23.70;53.10;;;;;;5072432;28;20178;-68
2023/06/10 06:01:13;;;;;;;5.95;4.55;;;23.70;53.10;;;;;;5071280;28;20657;-68
2023/06/10 06:03:39;;;;;;;4.32;3.92;;;23.70;53.10;;;;;;5072300;28;20179;-69
2023/06/10 06:06:04;;;;;;;4.90;4.53;;;23.70;53.10;;;;;;5072492;28;20201;-68
2023/06/10 06:08:30;;;;;;;4.65;4.25;;;23.70;53.10;;;;;;5070076;28;20178;-68
2023/06/10 06:10:55;;;;;;;4.78;4.38;;;23.70;53.10;;;;;;5072361;28;20690;-67
2023/06/10 06:13:21;;;;;;;4.93;4.53;;;23.70;53.10;;;;;;5071970;28;20181;-67
2023/06/10 06:15:46;;;;;;;4.80;4.40;;;23.70;53.10;;;;;;5071511;28;20557;-67
2023/06/10 06:18:12;;;;;;;4.47;4.07;;;23.70;53.10;;;;;;5071987;28;20630;-67
2023/06/10 06:20:37;;;;;;;4.50;4.20;;;23.70;53.10;;;;;;5072053;28;20214;-67
2023/06/10 06:23:03;;;;;;;4.57;4.25;;;23.70;53.10;;;;;;5071516;28;20171;-67
2023/06/10 06:25:28;;;;;;;4.35;3.95;;;23.70;53.10;;;;;;5071753;28;20174;-66
2023/06/10 06:27:54;;;;;;;4.85;4.40;;;23.70;53.10;;;;;;5074862;28;20186;-68
2023/06/10 06:30:20;;;;;;;4.80;4.30;;;23.70;53.20;;;;;;5074672;28;20174;-68
2023/06/10 06:32:45;;;;;;;4.53;4.13;;;23.70;53.10;;;;;;5075825;28;20175;-70
2023/06/10 06:35:11;;;;;;;4.68;4.28;;;23.70;53.30;;;;;;5075267;28;20174;-70
2023/06/10 06:37:36;;;;;;;4.38;4.07;;;23.80;53.40;;;;;;5074776;28;20174;-68
2023/06/10 06:40:03;;;;;;;4.85;4.25;;;23.80;53.50;;;;;;5075197;28;20317;-67
2023/06/10 06:42:29;;;;;;;4.32;3.92;;;23.80;53.50;;;;;;5075358;28;20182;-68
2023/06/10 06:44:54;;;;;;;4.47;4.07;;;23.80;53.60;;;;;;5074839;28;20174;-69
2023/06/10 06:47:20;;;;;;;4.72;4.38;;;23.80;53.60;;;;;;5075172;28;20642;-69
2023/06/10 06:49:46;;;;;;;4.47;4.07;;;23.80;53.50;;;;;;5074510;28;20775;-68
2023/06/10 06:52:12;;;;;;;4.88;4.47;;;23.80;53.50;;;;;;5074963;28;20216;-67
2023/06/10 06:54:38;;;;;;;4.68;4.20;;;23.80;53.50;;;;;;5075428;28;20257;-68
2023/06/10 06:57:03;;;;;;;4.80;4.30;;;23.80;53.50;;;;;;5074492;28;20281;-67
2023/06/10 06:59:29;;;;;;;4.72;4.32;;;23.80;53.40;;;;;;5074961;28;20175;-68
2023/06/10 07:01:54;;;;;;;4.10;3.70;;;23.80;53.40;;;;;;5074991;28;20206;-68
2023/06/10 07:04:21;;;;;;;4.50;4.10;;;23.80;53.30;;;;;;5074243;28;20185;-71
2023/06/10 07:06:48;;;;;;;5.38;4.88;;;23.80;53.20;;;;;;5075051;28;20541;-70
2023/06/10 07:09:13;;;;;;;4.78;4.28;;;23.80;53.20;;;;;;5074656;28;20167;-67
2023/06/10 07:11:39;;;;;;;4.35;3.95;;;23.90;53.20;;;;;;5074372;28;20178;-67
2023/06/10 07:14:04;;;;;;;5.30;4.35;;;23.90;53.20;;;;;;5075023;28;20593;-67
2023/06/10 07:16:30;;;;;;;4.55;4.15;;;23.90;53.20;;;;;;5074570;28;21096;-67
2023/06/10 07:18:55;;;;;;;4.40;4.00;;;23.90;53.20;;;;;;5074002;28;20174;-67
2023/06/10 07:21:23;;;;;;;5.07;4.53;;;23.90;53.20;;;;;;5074248;28;20221;-67
2023/06/10 07:23:48;;;;;;;4.63;4.22;;;23.90;53.20;;;;;;5074963;28;20175;-67
2023/06/10 07:26:14;;;;;;;4.53;3.83;;;24.00;53.30;;;;;;5073696;28;20175;-66
2023/06/10 07:28:40;;;;;;;4.40;4.03;;;24.00;53.20;;;;;;5074693;28;20629;-68
2023/06/10 07:31:06;;;;;;;5.15;4.65;;;24.00;53.20;;;;;;5074442;28;20256;-68
2023/06/10 07:33:32;;;;;;;4.78;4.18;;;24.00;53.20;;;;;;5074020;28;20214;-70
2023/06/10 07:35:57;;;;;;;4.28;3.97;;;24.00;53.10;;;;;;5074511;28;20194;-68
2023/06/10 07:38:23;;;;;;;4.53;4.13;;;24.00;53.10;;;;;;5072976;28;20264;-69
2023/06/10 07:40:48;;;;;;;4.47;4.07;;;24.00;53.10;;;;;;5073733;28;20198;-68
2023/06/10 07:43:14;;;;;;;5.90;4.63;;;24.00;53.60;;;;;;5074160;28;20221;-69
2023/06/10 07:45:40;;;;;;;4.65;4.25;;;24.00;53.40;;;;;;5074059;28;20637;-67
2023/06/10 07:48:05;;;;;;;6.35;4.57;;;24.00;53.20;;;;;;5073331;28;20311;-68
2023/06/10 07:50:31;;;;;;;4.85;4.45;;;24.10;54.00;;;;;;5073888;28;20189;-68
2023/06/10 07:52:56;;;;;;;4.45;4.05;;;24.10;53.90;;;;;;5074139;28;20166;-67
2023/06/10 07:55:22;;;;;;;4.97;4.38;;;24.10;54.00;;;;;;5073181;28;20181;-67
2023/06/10 07:57:47;;;;;;;4.68;4.28;;;24.10;53.90;;;;;;5074013;28;20171;-68
2023/06/10 08:00:13;;;;;;;4.38;3.97;;;24.10;53.90;;;;;;5072914;28;20194;-69
2023/06/10 08:02:39;;;;;;;4.60;3.97;;;24.20;54.00;;;;;;5073801;28;20535;-67
2023/06/10 08:05:05;;;;;;;4.03;3.63;;;24.20;54.00;;;;;;5074009;28;20224;-67
2023/06/10 08:07:31;;;;;;;4.70;4.22;;;24.20;53.80;;;;;;5072848;28;20182;-67
2023/06/10 08:09:57;;;;;;;5.63;4.50;;;24.20;53.60;;;;;;5074039;28;20266;-66
2023/06/10 08:12:22;;;;;;;4.95;4.43;;;24.20;54.00;;;;;;5073389;28;20261;-65
2023/06/10 08:14:48;;;;;;;4.28;3.92;;;24.20;53.70;;;;;;5072924;28;20217;-65
2023/06/10 08:17:13;;;;;;;4.60;4.20;;;24.20;53.70;;;;;;5073482;28;20174;-65
2023/06/10 08:19:39;;;;;;;4.32;3.75;;;24.20;53.70;;;;;;5073155;28;20178;-65
2023/06/10 08:22:04;;;;;;;4.80;4.35;;;24.20;53.80;;;;;;5072218;28;20207;-65
2023/06/10 08:24:30;;;;;;;4.90;3.88;;;24.30;53.80;;;;;;5072807;28;20181;-65
2023/06/10 08:26:56;;;;;;;5.35;3.97;;;24.30;53.80;;;;;;5073036;28;20530;-65
2023/06/10 08:29:22;;;;;;;4.28;3.97;;;24.30;53.80;;;;;;5072044;28;20174;-66
2023/06/10 08:31:48;;;;;;;4.65;4.25;;;24.30;53.70;;;;;;5073225;28;20196;-67
2023/06/10 08:34:13;;;;;;;4.45;4.05;;;24.30;53.80;;;;;;5072889;28;20176;-67
2023/06/10 08:36:39;;;;;;;5.22;4.10;;;24.30;54.40;;;;;;5072601;28;20178;-67
2023/06/10 08:39:04;;;;;;;6.18;4.28;;;24.30;53.80;;;;;;5073001;28;20590;-65
2023/06/10 08:41:32;;;;;;;6.00;3.97;;;24.30;53.90;;;;;;5072501;28;20700;-65
2023/06/10 08:44:20;;;;;;;5.18;4.20;;;24.40;53.90;;;;;;5071120;28;20182;-66
2023/06/10 08:46:46;;;;;;;4.63;3.78;;;24.30;53.90;;;;;;5071809;28;20179;-66
2023/06/10 08:49:11;;;;;;;4.70;3.97;;;24.30;53.90;;;;;;5072374;28;20174;-66
2023/06/10 08:51:37;;;;;;;5.25;4.18;;;24.30;53.90;;;;;;5071334;28;20193;-65
2023/06/10 08:54:05;;;;;;;5.28;4.07;;;24.40;53.90;;;;;;5071899;28;20232;-65
2023/06/10 08:56:31;;;;;;;4.95;4.10;;;24.40;53.90;;;;;;5071858;28;20192;-65
2023/06/10 08:58:57;;;;;;;7.68;4.18;;;24.40;53.90;;;;;;5071592;28;20530;-65
2023/06/10 09:01:24;;;;;;;5.05;4.20;;;24.40;53.90;;;;;;5072719;28;20255;-66
2023/06/10 09:03:50;;;;;;;4.78;3.95;;;24.40;53.90;;;;;;5071220;28;20178;-66
2023/06/10 09:06:15;;;;;;;5.50;4.00;;;24.40;53.80;;;;;;5072654;28;20659;-65
2023/06/10 09:08:41;;;;;;;3.95;3.55;;;24.40;53.80;;;;;;5071700;28;20198;-64
2023/06/10 09:11:07;;;;;;;5.28;4.25;;;24.40;53.80;;;;;;5070786;28;20683;-63
2023/06/10 09:13:32;;;;;;;4.50;3.92;;;24.50;53.80;;;;;;5073377;28;20167;-65
2023/06/10 09:16:00;;;;;;;4.32;3.92;;;24.50;53.80;;;;;;5071505;28;20633;-64
2023/06/10 09:18:27;;;;;;;4.50;4.10;;;24.50;53.80;;;;;;5071739;28;20260;-64
2023/06/10 09:20:52;;;;;;;4.38;4.00;;;24.50;53.70;;;;;;5071361;28;20206;-64
2023/06/10 09:23:18;;;;;;;4.07;3.67;;;24.50;53.70;;;;;;5072471;28;20174;-63
2023/06/10 09:25:43;;;;;;;4.07;3.70;;;24.50;53.70;;;;;;5070647;28;20181;-64
2023/06/10 09:28:15;;;;;;;4.50;3.95;;;24.60;53.70;;;;;;5072265;28;20186;-64
2023/06/10 09:30:41;;;;;;;3.88;3.58;;;24.60;53.70;;;;;;5072769;28;20184;-66
2023/06/10 09:33:11;;;;;;;4.50;3.58;;;24.60;53.70;;;;;;5071762;28;20253;-66
2023/06/10 09:35:37;;;;;;;4.72;4.00;;;24.60;53.60;;;;;;5072510;28;20185;-66
2023/06/10 09:38:02;;;;;;;4.00;3.60;;;24.60;53.60;;;;;;5054544;28;20211;-66
2023/06/10 09:40:28;;;;;;;4.65;3.80;;;24.60;53.60;;;;;;5071359;28;20202;-67
2023/06/10 09:42:55;;;;;;;4.85;4.32;;;24.60;53.60;;;;;;5072701;28;20186;-65
2023/06/10 09:45:21;;;;;;;4.18;3.78;;;24.60;53.50;;;;;;5072136;28;20199;-66
2023/06/10 09:47:47;;;;;;;4.03;3.65;;;24.70;53.60;;;;;;5071886;28;20182;-66
2023/06/10 09:50:13;;;;;;;3.67;3.38;;;24.70;53.60;;;;;;5072116;28;20181;-65
2023/06/10 09:52:38;;;;;;;5.63;3.90;;;24.70;53.50;;;;;;5071629;28;20179;-67
2023/06/10 09:55:04;;;;;;;5.03;4.10;;;24.70;53.50;;;;;;5072371;28;20174;-67
2023/06/10 09:57:32;;;;;;;4.47;4.07;;;24.70;53.50;;;;;;5070663;28;20308;-67
2023/06/10 09:59:58;;;;;;;5.30;4.28;;;24.80;53.50;;;;;;5071635;28;20185;-67
2023/06/10 10:02:23;;;;;;;4.15;3.78;;;24.80;53.50;;;;;;5074322;28;20170;-67
2023/06/10 10:04:49;;;;;;;4.05;3.75;;;24.80;53.40;;;;;;5076131;28;20211;-68
2023/06/10 10:07:14;;;;;;;4.13;3.72;;;24.70;53.40;;;;;;5075103;28;20185;-67
2023/06/10 10:09:40;;;;;;;7.03;3.97;;;24.80;53.40;;;;;;5076058;28;20174;-67
2023/06/10 10:12:13;;;;;;;4.20;3.88;;;24.80;53.40;;;;;;5076075;28;20331;-66
2023/06/10 10:14:39;;;;;;;4.03;3.63;;;24.80;53.40;;;;;;5075255;28;20249;-66
2023/06/10 10:17:07;;;;;;;4.38;3.97;;;24.80;53.30;;;;;;5074739;28;20179;-67
2023/06/10 10:19:33;;;;;;;3.85;3.55;;;24.90;53.30;;;;;;5074567;28;20171;-67
2023/06/10 10:22:04;;;;;;;4.03;3.63;;;24.90;53.30;;;;;;5073854;28;20206;-66
2023/06/10 10:24:38;;;;;;;4.38;3.97;;;24.90;53.30;;;;;;5074615;28;20171;-66
2023/06/10 10:27:07;;;;;;;4.82;4.10;;;24.90;53.30;;;;;;5075699;28;20210;-66
2023/06/10 10:29:38;;;;;;;5.53;3.50;;;24.90;53.30;;;;;;5073887;28;20197;-67
2023/06/10 10:32:04;;;;;;;5.00;4.55;;;24.90;53.20;;;;;;5074845;28;20175;-66
2023/06/10 10:34:34;;;;;;;3.65;3.22;;;25.00;53.30;;;;;;5075948;28;20216;-68
2023/06/10 10:36:59;;;;;;;4.50;3.47;;;24.90;53.10;;;;;;5074005;28;20208;-66
2023/06/10 10:39:28;;;;;;;3.55;3.25;;;24.90;53.10;;;;;;5074038;28;20599;-66
2023/06/10 10:41:53;;;;;;;4.78;4.25;;;25.00;53.10;;;;;;5057341;28;20222;-67
2023/06/10 10:44:19;;;;;;;3.88;3.40;;;25.00;53.10;;;;;;5074998;28;20181;-67
2023/06/10 10:46:48;;;;;;;4.32;3.97;;;25.00;53.10;;;;;;5057611;28;20262;-67
2023/06/10 10:49:14;;;;;;;4.72;4.28;;;25.00;53.00;;;;;;5074262;28;20253;-67
2023/06/10 10:51:57;;;;;;;4.55;3.45;;;25.00;53.00;;;;;;5074399;28;20261;-67
2023/06/10 10:54:32;;;;;;;4.57;4.18;;;25.00;53.00;;;;;;5075181;28;20569;-67
2023/06/10 10:57:16;;;;;;;3.63;3.33;;;25.00;52.90;;;;;;5074591;28;20182;-66
2023/06/10 10:59:55;;;;;;;3.63;3.33;;;25.00;52.90;;;;;;5075038;28;20261;-67
2023/06/10 11:02:40;;;;;;;5.18;3.40;;;25.10;52.90;;;;;;5075058;28;20509;-67
2023/06/10 11:05:06;;;;;;;4.82;3.55;;;25.10;52.80;;;;;;5074297;28;20258;-67
2023/06/10 11:07:32;;;;;;;4.15;3.75;;;25.10;52.90;;;;;;5074871;28;20167;-67
2023/06/10 11:09:59;;;;;;;4.40;4.00;;;25.10;52.80;;;;;;5074071;28;20225;-66
2023/06/10 11:12:25;;;;;;;4.00;3.17;;;25.10;52.80;;;;;;5074516;28;20171;-65
2023/06/10 11:14:55;;;;;;;4.85;4.13;;;25.10;52.80;;;;;;5075185;28;20175;-66
2023/06/10 11:17:20;;;;;;;4.43;3.70;;;25.10;52.80;;;;;;5074093;28;20171;-66
2023/06/10 11:19:46;;;;;;;4.18;3.78;;;25.10;52.70;;;;;;5074796;28;20181;-66
2023/06/10 11:22:17;;;;;;;4.22;3.83;;;25.20;52.80;;;;;;5074483;28;20673;-65
2023/06/10 11:24:50;;;;;;;3.65;3.35;;;25.10;52.70;;;;;;5074014;28;20684;-67
2023/06/10 11:27:19;;;;;;;4.10;3.65;;;25.10;52.70;;;;;;5074613;28;20547;-66
2023/06/10 11:29:56;;;;;;;3.78;3.47;;;25.10;52.70;;;;;;5074533;28;20177;-66
2023/06/10 11:32:22;;;;;;;4.05;3.53;;;25.10;52.70;;;;;;5073586;28;20184;-67
2023/06/10 11:34:53;;;;;;;3.92;3.50;;;25.10;52.70;;;;;;5056510;28;20261;-68
2023/06/10 11:37:19;;;;;;;4.70;3.58;;;25.20;52.70;;;;;;5074346;28;20183;-67
2023/06/10 11:39:45;;;;;;;3.55;3.25;;;25.20;52.70;;;;;;5072448;28;20229;-67
2023/06/10 11:42:10;;;;;;;4.60;4.20;;;25.20;52.60;;;;;;5073998;28;20353;-66
2023/06/10 11:44:37;;;;;;;4.13;3.83;;;25.20;52.60;;;;;;5074307;28;20625;-67
2023/06/10 11:47:03;;;;;;;4.00;3.60;;;25.20;52.50;;;;;;5073646;28;20257;-68
2023/06/10 11:49:29;;;;;;;4.15;3.80;;;25.20;52.50;;;;;;5073895;28;20216;-67
2023/06/10 11:51:54;;;;;;;3.63;3.33;;;25.20;52.50;;;;;;5074388;28;20174;-66
2023/06/10 11:54:21;;;;;;;3.80;3.25;;;25.20;52.40;;;;;;5073226;28;20167;-66
2023/06/10 11:56:47;;;;;;;3.80;3.50;;;25.20;52.40;;;;;;5074287;28;20584;-66
2023/06/10 11:59:13;;;;;;;4.20;3.90;;;25.20;52.30;;;;;;5073124;28;20174;-68
2023/06/10 12:01:43;;;;;;;4.47;3.60;;;25.30;52.30;;;;;;5073871;28;20233;-67
2023/06/10 12:04:10;;;;;;;4.20;3.83;;;25.30;52.30;;;;;;5073656;28;20179;-67
2023/06/10 12:06:48;;;;;;;4.00;3.58;;;25.30;52.20;;;;;;5073366;28;20182;-67
2023/06/10 12:09:21;;;;;;;3.60;3.30;;;25.30;52.10;;;;;;5072833;28;20189;-68
2023/06/10 12:11:59;;;;;;;4.18;3.83;;;25.30;51.90;;;;;;5072458;28;20215;-67
2023/06/10 12:14:59;;;;;;;4.35;3.70;;;25.30;52.00;;;;;;5070856;28;20186;-68
2023/06/10 12:17:30;;;;;;;7.80;4.20;;;25.40;51.80;;;;;;5073209;28;20179;-68
2023/06/10 12:19:56;;;;;;;4.30;3.50;;;25.40;51.90;;;;;;5072346;28;20177;-68
2023/06/10 12:22:23;;;;;;;3.70;3.22;;;25.40;51.70;;;;;;5071730;28;20218;-67
2023/06/10 12:25:02;;;;;;;5.65;3.72;;;25.40;51.70;;;;;;5072788;28;20171;-68
2023/06/10 12:27:31;;;;;;;4.20;3.80;;;25.40;51.70;;;;;;5072504;28;20174;-67
2023/06/10 12:30:00;;;;;;;4.55;4.13;;;25.40;51.60;;;;;;5073198;28;20221;-68
2023/06/10 12:32:38;;;;;;;5.43;4.18;;;25.50;51.50;;;;;;5072835;28;20573;-71
2023/06/10 12:35:04;;;;;;;4.68;3.80;;;25.50;51.50;;;;;;5072744;28;20174;-70
2023/06/10 12:37:30;;;;;;;4.55;3.70;;;25.50;51.50;;;;;;5072878;28;20186;-69
2023/06/10 12:39:56;;;;;;;5.72;3.83;;;25.50;51.50;;;;;;5072997;28;20715;-69
2023/06/10 12:42:23;;;;;;;6.22;4.03;;;25.50;51.40;;;;;;5072044;28;20245;-68
2023/06/10 12:44:53;;;;;;;6.38;4.10;;;25.60;51.30;;;;;;5073270;28;20172;-69
2023/06/10 12:47:18;;;;;;;5.78;4.22;;;25.60;51.10;;;;;;5072682;28;20585;-70